createdAt,value
2016-04-02T00:00:12.642Z,0
2016-04-02T00:01:12.614Z,0
2016-04-02T00:02:12.632Z,0
2016-04-02T00:03:12.682Z,0
2016-04-02T00:04:12.513Z,0
2016-04-02T00:05:12.624Z,0
2016-04-02T00:06:12.659Z,0
2016-04-02T00:07:12.662Z,0
2016-04-02T00:08:12.648Z,0
2016-04-02T00:09:12.667Z,0
2016-04-02T00:10:12.653Z,0
2016-04-02T00:11:12.641Z,0
2016-04-02T00:12:12.628Z,0
2016-04-02T00:13:12.631Z,0
2016-04-02T00:14:12.462Z,0
2016-04-02T00:15:12.620Z,0
2016-04-02T00:16:12.686Z,0
2016-04-02T00:17:12.657Z,0
2016-04-02T00:18:12.628Z,0
2016-04-02T00:19:12.631Z,0
2016-04-02T00:20:13.180Z,0
2016-04-02T00:21:12.621Z,0
2016-04-02T00:22:12.623Z,0
2016-04-02T00:23:12.611Z,0
2016-04-02T00:24:12.645Z,0
2016-04-02T00:25:12.663Z,0
2016-04-02T00:26:12.634Z,0
2016-04-02T00:27:12.622Z,0
2016-04-02T00:28:12.640Z,0
2016-04-02T00:29:12.596Z,0
2016-04-02T00:30:12.660Z,0
2016-04-02T00:31:12.710Z,0
2016-04-02T00:32:12.635Z,0
2016-04-02T00:33:12.606Z,0
2016-04-02T00:34:12.609Z,0
2016-04-02T00:35:12.616Z,0
2016-04-02T00:36:12.619Z,0
2016-04-02T00:37:12.606Z,0
2016-04-02T00:38:12.640Z,0
2016-04-02T00:39:12.643Z,0
2016-04-02T00:40:12.614Z,0
2016-04-02T00:41:12.633Z,0
2016-04-02T00:42:12.589Z,0
2016-04-02T00:43:12.622Z,0
2016-04-02T00:44:12.579Z,0
2016-04-02T00:45:12.612Z,0
2016-04-02T00:46:12.693Z,0
2016-04-02T00:47:12.602Z,0
2016-04-02T00:48:12.605Z,0
2016-04-02T00:49:12.592Z,0
2016-04-02T00:50:12.594Z,0
2016-04-02T00:51:12.597Z,0
2016-04-02T00:52:12.616Z,0
2016-04-02T00:53:12.618Z,0
2016-04-02T00:54:12.621Z,0
2016-04-02T00:55:12.624Z,0
2016-04-02T00:56:12.594Z,0
2016-04-02T00:57:12.582Z,0
2016-04-02T00:58:12.584Z,0
2016-04-02T00:59:12.588Z,0
2016-04-02T01:00:12.605Z,0
2016-04-02T01:01:12.608Z,0
2016-04-02T01:02:12.596Z,0
2016-04-02T01:03:12.582Z,0
2016-04-02T01:04:12.554Z,0
2016-04-02T01:05:12.588Z,0
2016-04-02T01:06:12.591Z,0
2016-04-02T01:07:12.593Z,0
2016-04-02T01:08:12.564Z,0
2016-04-02T01:09:12.568Z,0
2016-04-02T01:10:12.571Z,0
2016-04-02T01:11:12.604Z,0
2016-04-02T01:12:12.560Z,0
2016-04-02T01:13:12.562Z,0
2016-04-02T01:14:12.581Z,0
2016-04-02T01:15:12.567Z,0
2016-04-02T01:16:12.556Z,0
2016-04-02T01:17:12.558Z,0
2016-04-02T01:18:12.606Z,0
2016-04-02T01:19:12.578Z,0
2016-04-02T01:20:12.597Z,0
2016-04-02T01:21:12.522Z,0
2016-04-02T01:22:12.556Z,0
2016-04-02T01:23:12.543Z,0
2016-04-02T01:24:12.592Z,0
2016-04-02T01:25:12.547Z,0
2016-04-02T01:26:12.613Z,0
2016-04-02T01:27:12.538Z,0
2016-04-02T01:28:12.556Z,0
2016-04-02T01:29:12.575Z,0
2016-04-02T01:30:12.530Z,0
2016-04-02T01:31:12.705Z,0
2016-04-02T01:32:12.536Z,0
2016-04-02T01:33:12.522Z,0
2016-04-02T01:34:12.588Z,0
2016-04-02T01:35:12.544Z,0
2016-04-02T01:36:12.530Z,0
2016-04-02T01:37:12.533Z,0
2016-04-02T01:38:12.521Z,0
2016-04-02T01:39:12.398Z,0
2016-04-02T01:40:12.541Z,0
2016-04-02T01:41:12.498Z,0
2016-04-02T01:42:12.531Z,0
2016-04-02T01:43:12.487Z,0
2016-04-02T01:44:12.537Z,0
2016-04-02T01:45:12.508Z,0
2016-04-02T01:46:12.557Z,0
2016-04-02T01:47:12.498Z,0
2016-04-02T01:48:12.516Z,0
2016-04-02T01:49:12.519Z,0
2016-04-02T01:50:12.552Z,0
2016-04-02T01:51:12.477Z,0
2016-04-02T01:52:12.527Z,0
2016-04-02T01:53:12.483Z,0
2016-04-02T01:54:12.469Z,0
2016-04-02T01:55:12.519Z,0
2016-04-02T01:56:12.499Z,0
2016-04-02T01:57:12.506Z,0
2016-04-02T01:58:12.434Z,0
2016-04-02T01:59:12.457Z,0
2016-04-02T02:00:12.432Z,0
2016-04-02T02:01:12.428Z,0
2016-04-02T02:02:12.457Z,0
2016-04-02T02:03:12.409Z,0
2016-04-02T02:04:12.407Z,0
2016-04-02T02:05:12.391Z,0
2016-04-02T02:06:12.391Z,0
2016-04-02T02:07:12.376Z,0
2016-04-02T02:08:12.393Z,0
2016-04-02T02:09:12.372Z,0
2016-04-02T02:10:12.389Z,0
2016-04-02T02:11:12.375Z,0
2016-04-02T02:12:12.410Z,0
2016-04-02T02:13:12.365Z,0
2016-04-02T02:14:12.382Z,0
2016-04-02T02:15:12.393Z,0
2016-04-02T02:16:12.381Z,0
2016-04-02T02:17:12.195Z,0
2016-04-02T02:18:12.385Z,0
2016-04-02T02:19:12.308Z,0
2016-04-02T02:20:12.373Z,0
2016-04-02T02:21:12.360Z,0
2016-04-02T02:22:12.378Z,0
2016-04-02T02:23:12.365Z,0
2016-04-02T02:24:12.353Z,0
2016-04-02T02:25:12.386Z,0
2016-04-02T02:26:12.326Z,0
2016-04-02T02:27:12.377Z,0
2016-04-02T02:28:12.348Z,0
2016-04-02T02:29:12.351Z,0
2016-04-02T02:30:12.322Z,0
2016-04-02T02:31:12.340Z,0
2016-04-02T02:32:12.328Z,0
2016-04-02T02:33:12.378Z,0
2016-04-02T02:34:12.474Z,0
2016-04-02T02:35:12.351Z,0
2016-04-02T02:36:12.323Z,0
2016-04-02T02:37:12.342Z,0
2016-04-02T02:38:12.328Z,0
2016-04-02T02:39:12.331Z,0
2016-04-02T02:40:11.614Z,0
2016-04-02T02:41:12.290Z,0
2016-04-02T02:42:12.292Z,0
2016-04-02T02:43:12.327Z,0
2016-04-02T02:44:12.314Z,0
2016-04-02T02:45:12.285Z,0
2016-04-02T02:46:12.335Z,0
2016-04-02T02:47:12.306Z,0
2016-04-02T02:48:12.355Z,0
2016-04-02T02:49:12.421Z,0
2016-04-02T02:50:12.298Z,0
2016-04-02T02:51:12.301Z,0
2016-04-02T02:52:12.304Z,0
2016-04-02T02:53:12.290Z,0
2016-04-02T02:54:12.293Z,0
2016-04-02T02:55:12.277Z,0
2016-04-02T02:56:12.280Z,0
2016-04-02T02:57:12.283Z,0
2016-04-02T02:58:12.271Z,0
2016-04-02T02:59:12.288Z,0
2016-04-02T03:00:12.260Z,0
2016-04-02T03:01:12.278Z,0
2016-04-02T03:02:12.281Z,0
2016-04-02T03:03:12.284Z,0
2016-04-02T03:04:12.411Z,0
2016-04-02T03:05:12.274Z,0
2016-04-02T03:06:12.276Z,0
2016-04-02T03:07:12.279Z,0
2016-04-02T03:08:12.282Z,0
2016-04-02T03:09:12.285Z,0
2016-04-02T03:10:12.287Z,0
2016-04-02T03:11:12.228Z,0
2016-04-02T03:12:12.245Z,0
2016-04-02T03:13:12.248Z,0
2016-04-02T03:14:12.267Z,0
2016-04-02T03:15:12.253Z,0
2016-04-02T03:16:12.288Z,0
2016-04-02T03:17:12.258Z,0
2016-04-02T03:18:12.246Z,0
2016-04-02T03:19:12.702Z,0
2016-04-02T03:20:12.220Z,0
2016-04-02T03:21:12.255Z,0
2016-04-02T03:22:12.241Z,0
2016-04-02T03:23:12.088Z,0
2016-04-02T03:24:12.262Z,0
2016-04-02T03:25:12.233Z,0
2016-04-02T03:26:12.236Z,0
2016-04-02T03:27:12.254Z,0
2016-04-02T03:28:12.226Z,0
2016-04-02T03:29:12.244Z,0
2016-04-02T03:30:12.232Z,0
2016-04-02T03:31:12.063Z,0
2016-04-02T03:32:12.221Z,0
2016-04-02T03:33:12.271Z,0
2016-04-02T03:34:12.726Z,0
2016-04-02T03:35:12.229Z,0
2016-04-02T03:36:12.232Z,0
2016-04-02T03:37:12.220Z,0
2016-04-02T03:38:12.253Z,0
2016-04-02T03:39:12.053Z,0
2016-04-02T03:40:12.242Z,0
2016-04-02T03:41:12.230Z,0
2016-04-02T03:42:12.217Z,0
2016-04-02T03:43:12.204Z,0
2016-04-02T03:44:12.239Z,0
2016-04-02T03:45:12.225Z,0
2016-04-02T03:46:12.244Z,0
2016-04-02T03:47:12.231Z,0
2016-04-02T03:48:12.217Z,0
2016-04-02T03:49:12.252Z,0
2016-04-02T03:50:12.066Z,0
2016-04-02T03:51:12.210Z,0
2016-04-02T03:52:12.212Z,0
2016-04-02T03:53:12.215Z,0
2016-04-02T03:54:12.202Z,0
2016-04-02T03:55:12.188Z,0
2016-04-02T03:56:12.223Z,0
2016-04-02T03:57:12.241Z,0
2016-04-02T03:58:12.229Z,0
2016-04-02T03:59:12.216Z,0
2016-04-02T04:00:12.202Z,0
2016-04-02T04:01:12.221Z,0
2016-04-02T04:02:12.207Z,0
2016-04-02T04:03:12.226Z,0
2016-04-02T04:04:12.573Z,0
2016-04-02T04:05:12.201Z,0
2016-04-02T04:06:12.032Z,0
2016-04-02T04:07:12.207Z,0
2016-04-02T04:08:12.193Z,0
2016-04-02T04:09:12.181Z,0
2016-04-02T04:10:12.199Z,0
2016-04-02T04:11:12.186Z,0
2016-04-02T04:12:12.204Z,0
2016-04-02T04:13:12.206Z,0
2016-04-02T04:14:12.194Z,0
2016-04-02T04:15:12.212Z,0
2016-04-02T04:16:12.183Z,0
2016-04-02T04:17:12.233Z,0
2016-04-02T04:18:12.266Z,0
2016-04-02T04:19:12.628Z,0
2016-04-02T04:20:12.178Z,0
2016-04-02T04:21:12.181Z,0
2016-04-02T04:22:12.184Z,0
2016-04-02T04:23:12.218Z,0
2016-04-02T04:24:12.174Z,0
2016-04-02T04:25:12.192Z,0
2016-04-02T04:26:12.194Z,0
2016-04-02T04:27:12.166Z,0
2016-04-02T04:28:12.184Z,0
2016-04-02T04:29:12.187Z,0
2016-04-02T04:30:12.173Z,0
2016-04-02T04:31:12.207Z,0
2016-04-02T04:32:12.163Z,0
2016-04-02T04:33:12.041Z,0
2016-04-02T04:34:12.278Z,0
2016-04-02T04:35:12.204Z,0
2016-04-02T04:36:12.159Z,0
2016-04-02T04:37:12.193Z,0
2016-04-02T04:38:12.165Z,0
2016-04-02T04:39:12.198Z,0
2016-04-02T04:40:12.154Z,0
2016-04-02T04:41:12.141Z,0
2016-04-02T04:42:12.206Z,0
2016-04-02T04:43:12.178Z,0
2016-04-02T04:44:12.181Z,0
2016-04-02T04:45:12.168Z,0
2016-04-02T04:46:12.201Z,0
2016-04-02T04:47:12.158Z,0
2016-04-02T04:48:12.176Z,0
2016-04-02T04:49:12.272Z,0
2016-04-02T04:50:12.150Z,0
2016-04-02T04:51:12.152Z,0
2016-04-02T04:52:12.155Z,0
2016-04-02T04:53:12.174Z,0
2016-04-02T04:54:12.160Z,0
2016-04-02T04:55:12.163Z,0
2016-04-02T04:56:12.182Z,0
2016-04-02T04:57:12.137Z,0
2016-04-02T04:58:12.156Z,0
2016-04-02T04:59:12.158Z,0
2016-04-02T05:00:12.161Z,0
2016-04-02T05:01:12.180Z,0
2016-04-02T05:02:12.213Z,0
2016-04-02T05:03:12.247Z,0
2016-04-02T05:04:12.328Z,0
2016-04-02T05:05:12.159Z,0
2016-04-02T05:06:12.193Z,0
2016-04-02T05:07:12.148Z,0
2016-04-02T05:08:12.167Z,0
2016-04-02T05:09:12.137Z,0
2016-04-02T05:10:12.156Z,5
2016-04-02T05:11:12.159Z,5
2016-04-02T05:12:12.177Z,5
2016-04-02T05:13:12.149Z,5
2016-04-02T05:14:12.167Z,5
2016-04-02T05:15:12.201Z,5
2016-04-02T05:16:12.142Z,5
2016-04-02T05:17:12.159Z,5
2016-04-02T05:18:12.178Z,5
2016-04-02T05:19:12.368Z,5
2016-04-02T05:20:12.167Z,10
2016-04-02T05:21:12.139Z,10
2016-04-02T05:22:12.142Z,10
2016-04-02T05:23:12.145Z,10
2016-04-02T05:24:12.164Z,10
2016-04-02T05:25:12.119Z,10
2016-04-02T05:26:12.153Z,10
2016-04-02T05:27:12.155Z,10
2016-04-02T05:28:12.158Z,10
2016-04-02T05:29:12.146Z,10
2016-04-02T05:30:12.148Z,10
2016-04-02T05:31:12.119Z,10
2016-04-02T05:32:12.153Z,15
2016-04-02T05:33:12.124Z,15
2016-04-02T05:34:12.674Z,15
2016-04-02T05:35:12.145Z,15
2016-04-02T05:36:12.117Z,15
2016-04-02T05:37:12.135Z,15
2016-04-02T05:38:12.138Z,15
2016-04-02T05:39:12.126Z,20
2016-04-02T05:40:12.143Z,20
2016-04-02T05:41:12.178Z,20
2016-04-02T05:42:12.117Z,20
2016-04-02T05:43:12.151Z,20
2016-04-02T05:44:12.123Z,20
2016-04-02T05:45:12.141Z,25
2016-04-02T05:46:12.144Z,25
2016-04-02T05:47:12.193Z,25
2016-04-02T05:48:12.196Z,25
2016-04-02T05:49:12.261Z,25
2016-04-02T05:50:12.139Z,30
2016-04-02T05:51:12.142Z,30
2016-04-02T05:52:12.161Z,30
2016-04-02T05:53:12.163Z,30
2016-04-02T05:54:12.119Z,30
2016-04-02T05:55:12.137Z,30
2016-04-02T05:56:12.139Z,30
2016-04-02T05:57:12.111Z,35
2016-04-02T05:58:12.160Z,35
2016-04-02T05:59:12.132Z,35
2016-04-02T06:00:12.119Z,35
2016-04-02T06:01:12.153Z,35
2016-04-02T06:02:11.391Z,40
2016-04-02T06:03:11.971Z,40
2016-04-02T06:04:12.115Z,40
2016-04-02T06:05:12.133Z,40
2016-04-02T06:06:12.120Z,40
2016-04-02T06:07:12.013Z,45
2016-04-02T06:08:12.109Z,45
2016-04-02T06:09:12.128Z,45
2016-04-02T06:10:12.146Z,45
2016-04-02T06:11:12.148Z,45
2016-04-02T06:12:12.167Z,45
2016-04-02T06:13:12.091Z,45
2016-04-02T06:14:12.172Z,45
2016-04-02T06:15:12.128Z,45
2016-04-02T06:16:12.147Z,45
2016-04-02T06:17:12.118Z,45
2016-04-02T06:18:12.137Z,45
2016-04-02T06:19:12.311Z,50
2016-04-02T06:20:12.158Z,50
2016-04-02T06:21:12.144Z,55
2016-04-02T06:22:12.147Z,55
2016-04-02T06:23:12.119Z,55
2016-04-02T06:24:12.136Z,55
2016-04-02T06:25:12.155Z,60
2016-04-02T06:26:12.157Z,60
2016-04-02T06:27:12.113Z,60
2016-04-02T06:28:12.116Z,60
2016-04-02T06:29:12.134Z,60
2016-04-02T06:30:12.121Z,65
2016-04-02T06:31:12.171Z,65
2016-04-02T06:32:12.173Z,65
2016-04-02T06:33:12.146Z,65
2016-04-02T06:34:11.991Z,70
2016-04-02T06:35:12.135Z,70
2016-04-02T06:36:12.153Z,70
2016-04-02T06:37:12.124Z,70
2016-04-02T06:38:12.127Z,70
2016-04-02T06:39:12.130Z,70
2016-04-02T06:40:12.118Z,70
2016-04-02T06:41:12.152Z,70
2016-04-02T06:42:12.138Z,70
2016-04-02T06:43:12.126Z,75
2016-04-02T06:44:12.144Z,75
2016-04-02T06:45:12.162Z,75
2016-04-02T06:46:12.149Z,80
2016-04-02T06:47:11.995Z,80
2016-04-02T06:48:12.139Z,85
2016-04-02T06:49:12.392Z,85
2016-04-02T06:50:12.128Z,90
2016-04-02T06:51:12.147Z,90
2016-04-02T06:52:12.164Z,90
2016-04-02T06:53:12.167Z,90
2016-04-02T06:54:12.155Z,90
2016-04-02T06:55:12.142Z,90
2016-04-02T06:56:12.208Z,90
2016-04-02T06:57:12.132Z,90
2016-04-02T06:58:12.181Z,90
2016-04-02T06:59:12.137Z,90
2016-04-02T07:00:12.155Z,90
2016-04-02T07:01:12.143Z,90
2016-04-02T07:02:12.191Z,90
2016-04-02T07:03:12.116Z,95
2016-04-02T07:04:12.306Z,95
2016-04-02T07:05:12.168Z,95
2016-04-02T07:06:12.171Z,95
2016-04-02T07:07:12.190Z,95
2016-04-02T07:08:11.426Z,90
2016-04-02T07:09:12.180Z,90
2016-04-02T07:10:12.151Z,95
2016-04-02T07:11:12.185Z,95
2016-04-02T07:12:12.157Z,95
2016-04-02T07:13:12.175Z,100
2016-04-02T07:14:12.209Z,100
2016-04-02T07:15:12.181Z,100
2016-04-02T07:16:12.183Z,100
2016-04-02T07:17:12.170Z,105
2016-04-02T07:18:12.173Z,105
2016-04-02T07:19:12.112Z,105
2016-04-02T07:20:12.162Z,105
2016-04-02T07:21:12.165Z,105
2016-04-02T07:22:12.183Z,105
2016-04-02T07:23:12.202Z,110
2016-04-02T07:24:12.189Z,110
2016-04-02T07:25:12.175Z,110
2016-04-02T07:26:12.194Z,110
2016-04-02T07:27:12.196Z,110
2016-04-02T07:28:12.183Z,105
2016-04-02T07:29:12.186Z,110
2016-04-02T07:30:12.205Z,105
2016-04-02T07:31:12.161Z,100
2016-04-02T07:32:12.194Z,95
2016-04-02T07:33:12.197Z,95
2016-04-02T07:34:12.496Z,95
2016-04-02T07:35:12.202Z,95
2016-04-02T07:36:12.174Z,95
2016-04-02T07:37:12.193Z,95
2016-04-02T07:38:12.210Z,95
2016-04-02T07:39:12.213Z,95
2016-04-02T07:40:12.200Z,95
2016-04-02T07:41:12.062Z,95
2016-04-02T07:42:12.237Z,95
2016-04-02T07:43:12.209Z,95
2016-04-02T07:44:13.040Z,95
2016-04-02T07:45:12.214Z,100
2016-04-02T07:46:12.201Z,105
2016-04-02T07:47:12.187Z,110
2016-04-02T07:48:12.206Z,110
2016-04-02T07:49:12.287Z,115
2016-04-02T07:50:12.227Z,120
2016-04-02T07:51:12.199Z,120
2016-04-02T07:52:12.201Z,125
2016-04-02T07:53:12.189Z,125
2016-04-02T07:54:12.207Z,130
2016-04-02T07:55:12.194Z,135
2016-04-02T07:56:12.212Z,135
2016-04-02T07:57:12.230Z,135
2016-04-02T07:58:12.217Z,135
2016-04-02T07:59:12.235Z,140
2016-04-02T08:00:12.238Z,140
2016-04-02T08:01:12.225Z,140
2016-04-02T08:02:12.213Z,140
2016-04-02T08:03:12.231Z,135
2016-04-02T08:04:12.375Z,135
2016-04-02T08:05:12.268Z,135
2016-04-02T08:06:12.224Z,140
2016-04-02T08:07:12.241Z,140
2016-04-02T08:08:12.244Z,140
2016-04-02T08:09:12.246Z,140
2016-04-02T08:10:12.265Z,140
2016-04-02T08:11:12.252Z,140
2016-04-02T08:12:12.270Z,135
2016-04-02T08:13:12.273Z,135
2016-04-02T08:14:12.292Z,140
2016-04-02T08:15:12.295Z,140
2016-04-02T08:16:12.282Z,140
2016-04-02T08:17:12.268Z,140
2016-04-02T08:18:12.287Z,140
2016-04-02T08:19:12.414Z,135
2016-04-02T08:20:12.276Z,135
2016-04-02T08:21:12.279Z,135
2016-04-02T08:22:12.267Z,135
2016-04-02T08:23:12.270Z,135
2016-04-02T08:24:12.287Z,135
2016-04-02T08:25:12.290Z,135
2016-04-02T08:26:12.308Z,140
2016-04-02T08:27:12.327Z,140
2016-04-02T08:28:12.297Z,145
2016-04-02T08:29:12.316Z,145
2016-04-02T08:30:12.288Z,145
2016-04-02T08:31:12.291Z,145
2016-04-02T08:32:12.294Z,145
2016-04-02T08:33:12.311Z,140
2016-04-02T08:34:12.408Z,145
2016-04-02T08:35:12.301Z,145
2016-04-02T08:36:12.319Z,145
2016-04-02T08:37:12.306Z,150
2016-04-02T08:38:12.309Z,150
2016-04-02T08:39:12.312Z,150
2016-04-02T08:40:12.330Z,150
2016-04-02T08:41:12.286Z,150
2016-04-02T08:42:12.336Z,155
2016-04-02T08:43:12.338Z,160
2016-04-02T08:44:12.357Z,170
2016-04-02T08:45:12.328Z,170
2016-04-02T08:46:12.362Z,170
2016-04-02T08:47:12.334Z,170
2016-04-02T08:48:12.368Z,170
2016-04-02T08:49:12.276Z,180
2016-04-02T08:50:12.326Z,185
2016-04-02T08:51:12.359Z,180
2016-04-02T08:52:12.362Z,185
2016-04-02T08:53:12.334Z,190
2016-04-02T08:54:12.399Z,195
2016-04-02T08:55:12.355Z,195
2016-04-02T08:56:12.389Z,185
2016-04-02T08:57:12.361Z,190
2016-04-02T08:58:12.379Z,180
2016-04-02T08:59:12.381Z,190
2016-04-02T09:00:12.384Z,195
2016-04-02T09:01:12.386Z,205
2016-04-02T09:02:12.358Z,220
2016-04-02T09:03:12.235Z,225
2016-04-02T09:04:12.489Z,230
2016-04-02T09:05:12.397Z,235
2016-04-02T09:06:12.416Z,235
2016-04-02T09:07:12.402Z,235
2016-04-02T09:08:12.421Z,235
2016-04-02T09:09:12.392Z,235
2016-04-02T09:10:12.395Z,250
2016-04-02T09:11:12.413Z,260
2016-04-02T09:12:12.432Z,260
2016-04-02T09:13:12.404Z,275
2016-04-02T09:14:12.421Z,275
2016-04-02T09:15:12.424Z,270
2016-04-02T09:16:12.412Z,260
2016-04-02T09:17:12.415Z,245
2016-04-02T09:18:12.433Z,235
2016-04-02T09:19:12.451Z,245
2016-04-02T09:20:12.470Z,245
2016-04-02T09:21:12.472Z,240
2016-04-02T09:22:12.459Z,235
2016-04-02T09:23:12.445Z,230
2016-04-02T09:24:12.464Z,235
2016-04-02T09:25:12.451Z,230
2016-04-02T09:26:12.486Z,225
2016-04-02T09:27:12.473Z,235
2016-04-02T09:28:12.459Z,230
2016-04-02T09:29:12.494Z,220
2016-04-02T09:30:12.480Z,220
2016-04-02T09:31:12.530Z,225
2016-04-02T09:32:12.485Z,235
2016-04-02T09:33:12.332Z,255
2016-04-02T09:34:12.725Z,265
2016-04-02T09:35:12.353Z,265
2016-04-02T09:36:12.544Z,255
2016-04-02T09:37:12.483Z,250
2016-04-02T09:38:12.518Z,255
2016-04-02T09:39:12.504Z,260
2016-04-02T09:40:12.539Z,265
2016-04-02T09:41:12.526Z,270
2016-04-02T09:42:12.529Z,275
2016-04-02T09:43:12.515Z,270
2016-04-02T09:44:12.565Z,270
2016-04-02T09:45:12.552Z,270
2016-04-02T09:46:12.554Z,270
2016-04-02T09:47:12.557Z,285
2016-04-02T09:48:12.559Z,280
2016-04-02T09:49:12.751Z,280
2016-04-02T09:50:12.565Z,275
2016-04-02T09:51:12.600Z,275
2016-04-02T09:52:12.539Z,275
2016-04-02T09:53:12.589Z,295
2016-04-02T09:54:12.576Z,305
2016-04-02T09:55:12.594Z,315
2016-04-02T09:56:12.628Z,320
2016-04-02T09:57:12.459Z,315
2016-04-02T09:58:12.603Z,305
2016-04-02T09:59:12.653Z,295
2016-04-02T10:00:12.592Z,290
2016-04-02T10:01:12.627Z,280
2016-04-02T10:02:12.613Z,285
2016-04-02T10:03:12.616Z,275
2016-04-02T10:04:12.760Z,275
2016-04-02T10:05:12.638Z,280
2016-04-02T10:06:12.656Z,290
2016-04-02T10:07:12.627Z,300
2016-04-02T10:08:12.646Z,290
2016-04-02T10:09:12.679Z,295
2016-04-02T10:10:12.697Z,295
2016-04-02T10:11:12.668Z,300
2016-04-02T10:12:12.687Z,295
2016-04-02T10:13:12.674Z,290
2016-04-02T10:14:12.708Z,290
2016-04-02T10:15:12.680Z,290
2016-04-02T10:16:12.698Z,300
2016-04-02T10:17:12.685Z,300
2016-04-02T10:18:12.734Z,300
2016-04-02T10:19:12.753Z,300
2016-04-02T10:20:12.739Z,305
2016-04-02T10:21:12.758Z,315
2016-04-02T10:22:12.714Z,320
2016-04-02T10:23:12.732Z,320
2016-04-02T10:24:12.782Z,320
2016-04-02T10:25:12.753Z,305
2016-04-02T10:26:12.772Z,305
2016-04-02T10:27:12.742Z,300
2016-04-02T10:28:12.777Z,305
2016-04-02T10:29:12.764Z,305
2016-04-02T10:30:12.767Z,305
2016-04-02T10:31:12.801Z,310
2016-04-02T10:32:12.803Z,310
2016-04-02T10:33:12.822Z,310
2016-04-02T10:34:12.918Z,305
2016-04-02T10:35:12.827Z,305
2016-04-02T10:36:12.829Z,310
2016-04-02T10:37:12.801Z,310
2016-04-02T10:38:12.835Z,315
2016-04-02T10:39:12.822Z,310
2016-04-02T10:40:12.841Z,310
2016-04-02T10:41:12.827Z,310
2016-04-02T10:42:12.815Z,310
2016-04-02T10:43:12.802Z,310
2016-04-02T10:44:12.851Z,315
2016-04-02T10:45:12.838Z,320
2016-04-02T10:46:12.887Z,320
2016-04-02T10:47:12.859Z,315
2016-04-02T10:48:12.878Z,315
2016-04-02T10:49:13.021Z,310
2016-04-02T10:50:12.884Z,320
2016-04-02T10:51:12.886Z,325
2016-04-02T10:52:12.857Z,330
2016-04-02T10:53:12.891Z,320
2016-04-02T10:54:12.879Z,320
2016-04-02T10:55:12.881Z,315
2016-04-02T10:56:12.915Z,315
2016-04-02T10:57:12.918Z,320
2016-04-02T10:58:12.905Z,325
2016-04-02T10:59:12.954Z,330
2016-04-02T11:00:12.925Z,330
2016-04-02T11:01:12.959Z,330
2016-04-02T11:02:12.930Z,330
2016-04-02T11:03:12.954Z,320
2016-04-02T11:04:13.117Z,330
2016-04-02T11:05:12.984Z,330
2016-04-02T11:06:12.945Z,330
2016-04-02T11:07:12.952Z,325
2016-04-02T11:08:12.887Z,320
2016-04-02T11:09:12.933Z,325
2016-04-02T11:10:12.915Z,315
2016-04-02T11:11:12.929Z,315
2016-04-02T11:12:12.944Z,320
2016-04-02T11:13:12.929Z,320
2016-04-02T11:14:12.899Z,320
2016-04-02T11:15:12.915Z,315
2016-04-02T11:16:12.979Z,305
2016-04-02T11:17:12.917Z,300
2016-04-02T11:18:12.920Z,305
2016-04-02T11:19:13.048Z,305
2016-04-02T11:20:12.988Z,305
2016-04-02T11:21:12.959Z,305
2016-04-02T11:22:12.992Z,310
2016-04-02T11:23:12.948Z,305
2016-04-02T11:24:12.998Z,305
2016-04-02T11:25:12.954Z,310
2016-04-02T11:26:12.988Z,305
2016-04-02T11:27:13.006Z,305
2016-04-02T11:28:12.978Z,305
2016-04-02T11:29:13.027Z,310
2016-04-02T11:30:12.998Z,305
2016-04-02T11:31:13.048Z,300
2016-04-02T11:32:13.035Z,300
2016-04-02T11:33:13.053Z,305
2016-04-02T11:34:13.337Z,305
2016-04-02T11:35:13.028Z,310
2016-04-02T11:36:13.031Z,310
2016-04-02T11:37:13.064Z,305
2016-04-02T11:38:13.052Z,305
2016-04-02T11:39:13.100Z,305
2016-04-02T11:40:13.057Z,310
2016-04-02T11:41:13.090Z,325
2016-04-02T11:42:13.077Z,335
2016-04-02T11:43:13.065Z,340
2016-04-02T11:44:13.113Z,340
2016-04-02T11:45:13.086Z,345
2016-04-02T11:46:13.135Z,340
2016-04-02T11:47:13.107Z,335
2016-04-02T11:48:13.140Z,335
2016-04-02T11:49:13.002Z,340
2016-04-02T11:50:13.146Z,345
2016-04-02T11:51:13.149Z,350
2016-04-02T11:52:13.152Z,360
2016-04-02T11:53:13.154Z,365
2016-04-02T11:54:13.173Z,370
2016-04-02T11:55:13.190Z,375
2016-04-02T11:56:13.146Z,380
2016-04-02T11:57:13.164Z,375
2016-04-02T11:58:13.167Z,370
2016-04-02T11:59:13.186Z,370
2016-04-02T12:00:13.141Z,375
2016-04-02T12:01:13.254Z,375
2016-04-02T12:02:13.209Z,375
2016-04-02T12:03:13.212Z,375
2016-04-02T12:04:13.261Z,380
2016-04-02T12:05:13.233Z,370
2016-04-02T12:06:13.220Z,360
2016-04-02T12:07:13.222Z,355
2016-04-02T12:08:13.241Z,350
2016-04-02T12:09:13.212Z,345
2016-04-02T12:10:13.262Z,340
2016-04-02T12:11:13.249Z,345
2016-04-02T12:12:13.268Z,335
2016-04-02T12:13:13.239Z,330
2016-04-02T12:14:13.304Z,335
2016-04-02T12:15:13.276Z,335
2016-04-02T12:16:13.310Z,325
2016-04-02T12:17:13.281Z,320
2016-04-02T12:18:13.269Z,315
2016-04-02T12:19:13.365Z,310
2016-04-02T12:20:13.305Z,310
2016-04-02T12:21:13.338Z,320
2016-04-02T12:22:13.310Z,310
2016-04-02T12:23:13.329Z,315
2016-04-02T12:24:13.315Z,310
2016-04-02T12:25:13.334Z,305
2016-04-02T12:26:13.320Z,310
2016-04-02T12:27:13.371Z,310
2016-04-02T12:28:13.373Z,305
2016-04-02T12:29:13.360Z,310
2016-04-02T12:30:13.395Z,310
2016-04-02T12:31:13.381Z,310
2016-04-02T12:32:13.384Z,310
2016-04-02T12:33:13.386Z,305
2016-04-02T12:34:13.327Z,300
2016-04-02T12:35:13.422Z,300
2016-04-02T12:36:13.425Z,300
2016-04-02T12:37:13.397Z,300
2016-04-02T12:38:13.416Z,300
2016-04-02T12:39:13.419Z,295
2016-04-02T12:40:13.452Z,295
2016-04-02T12:41:13.424Z,290
2016-04-02T12:42:13.473Z,285
2016-04-02T12:43:13.445Z,290
2016-04-02T12:44:13.479Z,285
2016-04-02T12:45:13.466Z,285
2016-04-02T12:46:13.500Z,280
2016-04-02T12:47:13.487Z,270
2016-04-02T12:48:13.568Z,265
2016-04-02T12:49:13.211Z,255
2016-04-02T12:50:13.495Z,235
2016-04-02T12:51:13.513Z,240
2016-04-02T12:52:13.656Z,240
2016-04-02T12:53:13.488Z,235
2016-04-02T12:54:13.537Z,220
2016-04-02T12:55:13.524Z,210
2016-04-02T12:56:13.558Z,200
2016-04-02T12:57:13.529Z,200
2016-04-02T12:58:13.532Z,195
2016-04-02T12:59:13.565Z,195
2016-04-02T13:00:13.584Z,195
2016-04-02T13:01:13.539Z,195
2016-04-02T13:02:13.558Z,195
2016-04-02T13:03:13.561Z,190
2016-04-02T13:04:13.908Z,190
2016-04-02T13:05:13.582Z,195
2016-04-02T13:06:13.600Z,205
2016-04-02T13:07:13.603Z,215
2016-04-02T13:08:13.589Z,230
2016-04-02T13:09:13.624Z,240
2016-04-02T13:10:13.595Z,240
2016-04-02T13:11:13.645Z,250
2016-04-02T13:12:13.648Z,265
2016-04-02T13:13:13.650Z,275
2016-04-02T13:14:13.638Z,275
2016-04-02T13:15:13.640Z,275
2016-04-02T13:16:13.627Z,280
2016-04-02T13:17:13.692Z,285
2016-04-02T13:18:13.648Z,285
2016-04-02T13:19:13.573Z,285
2016-04-02T13:20:13.669Z,280
2016-04-02T13:21:13.704Z,295
2016-04-02T13:22:13.706Z,300
2016-04-02T13:23:13.693Z,300
2016-04-02T13:24:13.695Z,300
2016-04-02T13:25:13.729Z,295
2016-04-02T13:26:13.716Z,290
2016-04-02T13:27:13.703Z,285
2016-04-02T13:28:13.737Z,275
2016-04-02T13:29:13.725Z,265
2016-04-02T13:30:13.728Z,260
2016-04-02T13:31:13.762Z,250
2016-04-02T13:32:13.748Z,240
2016-04-02T13:33:13.798Z,235
2016-04-02T13:34:13.800Z,225
2016-04-02T13:35:13.772Z,225
2016-04-02T13:36:13.759Z,225
2016-04-02T13:37:13.809Z,220
2016-04-02T13:38:13.828Z,220
2016-04-02T13:39:13.814Z,225
2016-04-02T13:40:13.801Z,235
2016-04-02T13:41:13.803Z,240
2016-04-02T13:42:13.806Z,245
2016-04-02T13:43:13.824Z,255
2016-04-02T13:44:13.827Z,260
2016-04-02T13:45:13.830Z,270
2016-04-02T13:46:13.849Z,270
2016-04-02T13:47:13.867Z,270
2016-04-02T13:48:13.854Z,265
2016-04-02T13:49:13.982Z,265
2016-04-02T13:50:13.859Z,265
2016-04-02T13:51:13.862Z,265
2016-04-02T13:52:13.895Z,255
2016-04-02T13:53:13.882Z,255
2016-04-02T13:54:13.901Z,250
2016-04-02T13:55:13.904Z,240
2016-04-02T13:56:13.938Z,240
2016-04-02T13:57:13.909Z,230
2016-04-02T13:58:13.803Z,220
2016-04-02T13:59:13.945Z,215
2016-04-02T14:00:13.808Z,215
2016-04-02T14:01:13.964Z,215
2016-04-02T14:02:19.544Z,220
2016-04-02T14:03:13.812Z,230
2016-04-02T14:04:18.418Z,235
2016-04-02T14:05:14.067Z,240
2016-04-02T14:06:13.960Z,245
2016-04-02T14:07:14.369Z,250
2016-04-02T14:08:13.997Z,260
2016-04-02T14:09:14.014Z,265
2016-04-02T14:10:14.017Z,270
2016-04-02T14:11:14.005Z,275
2016-04-02T14:12:14.023Z,280